sensor_id;sensor_type;location;lat;lon;timestamp;P1;durP1;ratioP1;P2;durP2;ratioP2
73337;SDS011;61575;49.908;35.556;2024-03-22T00:00:51;22.80;;;8.80;;
73337;SDS011;61575;49.908;35.556;2024-03-22T00:03:52;25.77;;;9.35;;
73337;SDS011;61575;49.908;35.556;2024-03-22T00:06:53;17.80;;;6.60;;
73337;SDS011;61575;49.908;35.556;2024-03-22T00:09:54;48.70;;;15.85;;
73337;SDS011;61575;49.908;35.556;2024-03-22T00:12:55;20.67;;;6.75;;
73337;SDS011;61575;49.908;35.556;2024-03-22T00:15:56;16.95;;;6.53;;
73337;SDS011;61575;49.908;35.556;2024-03-22T00:18:57;14.45;;;6.47;;
73337;SDS011;61575;49.908;35.556;2024-03-22T00:21:58;16.63;;;6.70;;
73337;SDS011;61575;49.908;35.556;2024-03-22T00:24:58;41.92;;;16.25;;
73337;SDS011;61575;49.908;35.556;2024-03-22T00:27:59;32.15;;;12.48;;
73337;SDS011;61575;49.908;35.556;2024-03-22T00:31:00;18.15;;;7.22;;
73337;SDS011;61575;49.908;35.556;2024-03-22T00:34:01;14.32;;;6.30;;
73337;SDS011;61575;49.908;35.556;2024-03-22T00:37:02;17.52;;;6.22;;
73337;SDS011;61575;49.908;35.556;2024-03-22T00:40:03;18.63;;;6.60;;
73337;SDS011;61575;49.908;35.556;2024-03-22T00:43:06;18.00;;;7.57;;
73337;SDS011;61575;49.908;35.556;2024-03-22T00:46:07;14.70;;;6.93;;
73337;SDS011;61575;49.908;35.556;2024-03-22T00:49:08;12.55;;;5.43;;
73337;SDS011;61575;49.908;35.556;2024-03-22T00:52:09;14.38;;;5.70;;
73337;SDS011;61575;49.908;35.556;2024-03-22T00:55:10;15.88;;;5.75;;
73337;SDS011;61575;49.908;35.556;2024-03-22T00:58:11;15.82;;;7.18;;
73337;SDS011;61575;49.908;35.556;2024-03-22T01:01:12;14.73;;;5.00;;
73337;SDS011;61575;49.908;35.556;2024-03-22T01:04:13;15.02;;;5.88;;
73337;SDS011;61575;49.908;35.556;2024-03-22T01:07:13;13.95;;;5.18;;
73337;SDS011;61575;49.908;35.556;2024-03-22T01:10:14;12.10;;;5.82;;
73337;SDS011;61575;49.908;35.556;2024-03-22T01:13:15;14.52;;;5.85;;
73337;SDS011;61575;49.908;35.556;2024-03-22T01:16:16;15.75;;;6.47;;
73337;SDS011;61575;49.908;35.556;2024-03-22T01:19:17;16.38;;;7.15;;
73337;SDS011;61575;49.908;35.556;2024-03-22T01:22:18;17.63;;;7.07;;
73337;SDS011;61575;49.908;35.556;2024-03-22T01:25:19;16.35;;;7.15;;
73337;SDS011;61575;49.908;35.556;2024-03-22T01:28:20;15.48;;;7.57;;
73337;SDS011;61575;49.908;35.556;2024-03-22T01:31:21;15.75;;;7.22;;
73337;SDS011;61575;49.908;35.556;2024-03-22T01:34:22;18.48;;;8.32;;
73337;SDS011;61575;49.908;35.556;2024-03-22T01:37:23;16.80;;;7.50;;
73337;SDS011;61575;49.908;35.556;2024-03-22T01:40:24;17.13;;;7.93;;
73337;SDS011;61575;49.908;35.556;2024-03-22T01:43:25;19.30;;;7.80;;
73337;SDS011;61575;49.908;35.556;2024-03-22T01:46:26;17.05;;;7.70;;
73337;SDS011;61575;49.908;35.556;2024-03-22T01:49:27;21.55;;;9.55;;
73337;SDS011;61575;49.908;35.556;2024-03-22T01:52:28;23.27;;;9.52;;
73337;SDS011;61575;49.908;35.556;2024-03-22T01:55:30;21.75;;;9.10;;
73337;SDS011;61575;49.908;35.556;2024-03-22T01:58:31;19.23;;;8.95;;
73337;SDS011;61575;49.908;35.556;2024-03-22T02:01:33;16.63;;;8.13;;
73337;SDS011;61575;49.908;35.556;2024-03-22T02:07:36;18.77;;;9.00;;
73337;SDS011;61575;49.908;35.556;2024-03-22T02:10:37;20.42;;;9.05;;
73337;SDS011;61575;49.908;35.556;2024-03-22T02:13:38;19.85;;;9.55;;
73337;SDS011;61575;49.908;35.556;2024-03-22T02:16:42;19.75;;;8.93;;
73337;SDS011;61575;49.908;35.556;2024-03-22T02:19:43;21.55;;;9.23;;
73337;SDS011;61575;49.908;35.556;2024-03-22T02:22:44;19.65;;;9.65;;
73337;SDS011;61575;49.908;35.556;2024-03-22T02:25:45;24.92;;;10.93;;
73337;SDS011;61575;49.908;35.556;2024-03-22T02:28:46;21.95;;;9.63;;
73337;SDS011;61575;49.908;35.556;2024-03-22T02:40:01;21.30;;;9.35;;
73337;SDS011;61575;49.908;35.556;2024-03-22T02:43:15;22.52;;;10.45;;
73337;SDS011;61575;49.908;35.556;2024-03-22T02:46:19;26.15;;;10.32;;
73337;SDS011;61575;49.908;35.556;2024-03-22T02:49:20;24.20;;;10.23;;
73337;SDS011;61575;49.908;35.556;2024-03-22T02:52:21;23.67;;;9.70;;
73337;SDS011;61575;49.908;35.556;2024-03-22T02:55:22;15.85;;;7.20;;
73337;SDS011;61575;49.908;35.556;2024-03-22T02:58:23;19.40;;;7.70;;
73337;SDS011;61575;49.908;35.556;2024-03-22T03:01:24;29.35;;;11.45;;
73337;SDS011;61575;49.908;35.556;2024-03-22T03:04:25;23.35;;;9.57;;
73337;SDS011;61575;49.908;35.556;2024-03-22T03:07:26;24.80;;;9.52;;
73337;SDS011;61575;49.908;35.556;2024-03-22T03:10:28;41.80;;;14.40;;
73337;SDS011;61575;49.908;35.556;2024-03-22T03:13:29;29.60;;;12.52;;
73337;SDS011;61575;49.908;35.556;2024-03-22T03:16:30;23.33;;;11.15;;
73337;SDS011;61575;49.908;35.556;2024-03-22T03:19:31;19.52;;;10.55;;
73337;SDS011;61575;49.908;35.556;2024-03-22T03:22:31;20.25;;;9.75;;
73337;SDS011;61575;49.908;35.556;2024-03-22T03:25:32;20.05;;;9.52;;
73337;SDS011;61575;49.908;35.556;2024-03-22T03:28:33;20.52;;;8.77;;
73337;SDS011;61575;49.908;35.556;2024-03-22T03:31:34;18.00;;;8.23;;
73337;SDS011;61575;49.908;35.556;2024-03-22T03:34:35;18.50;;;8.18;;
73337;SDS011;61575;49.908;35.556;2024-03-22T03:37:36;19.50;;;8.10;;
73337;SDS011;61575;49.908;35.556;2024-03-22T03:40:37;15.43;;;8.15;;
73337;SDS011;61575;49.908;35.556;2024-03-22T03:43:37;15.82;;;8.15;;
73337;SDS011;61575;49.908;35.556;2024-03-22T03:46:38;17.25;;;7.80;;
73337;SDS011;61575;49.908;35.556;2024-03-22T03:49:39;17.48;;;8.20;;
73337;SDS011;61575;49.908;35.556;2024-03-22T03:52:40;19.40;;;8.75;;
73337;SDS011;61575;49.908;35.556;2024-03-22T03:55:41;16.33;;;7.07;;
73337;SDS011;61575;49.908;35.556;2024-03-22T03:58:42;17.00;;;6.43;;
73337;SDS011;61575;49.908;35.556;2024-03-22T04:01:43;16.23;;;6.60;;
73337;SDS011;61575;49.908;35.556;2024-03-22T04:04:44;16.48;;;5.57;;
73337;SDS011;61575;49.908;35.556;2024-03-22T04:07:48;17.55;;;6.53;;
73337;SDS011;61575;49.908;35.556;2024-03-22T04:10:52;15.40;;;6.28;;
73337;SDS011;61575;49.908;35.556;2024-03-22T04:13:59;14.48;;;6.03;;
73337;SDS011;61575;49.908;35.556;2024-03-22T04:17:00;14.13;;;5.93;;
73337;SDS011;61575;49.908;35.556;2024-03-22T04:20:01;14.05;;;5.60;;
73337;SDS011;61575;49.908;35.556;2024-03-22T04:23:04;14.02;;;5.63;;
73337;SDS011;61575;49.908;35.556;2024-03-22T04:26:05;12.65;;;6.20;;
73337;SDS011;61575;49.908;35.556;2024-03-22T04:29:06;14.75;;;6.32;;
73337;SDS011;61575;49.908;35.556;2024-03-22T04:32:07;14.90;;;5.90;;
73337;SDS011;61575;49.908;35.556;2024-03-22T04:35:11;15.38;;;7.07;;
73337;SDS011;61575;49.908;35.556;2024-03-22T04:38:12;17.30;;;6.40;;
73337;SDS011;61575;49.908;35.556;2024-03-22T04:41:12;15.13;;;5.93;;
73337;SDS011;61575;49.908;35.556;2024-03-22T04:44:13;13.05;;;5.65;;
73337;SDS011;61575;49.908;35.556;2024-03-22T04:47:14;15.20;;;6.50;;
73337;SDS011;61575;49.908;35.556;2024-03-22T04:50:15;14.68;;;6.10;;
73337;SDS011;61575;49.908;35.556;2024-03-22T04:53:19;17.80;;;6.03;;
73337;SDS011;61575;49.908;35.556;2024-03-22T04:56:24;14.35;;;5.95;;
73337;SDS011;61575;49.908;35.556;2024-03-22T04:59:25;16.55;;;6.30;;
73337;SDS011;61575;49.908;35.556;2024-03-22T05:02:26;11.68;;;5.68;;
73337;SDS011;61575;49.908;35.556;2024-03-22T05:05:27;13.77;;;5.45;;
73337;SDS011;61575;49.908;35.556;2024-03-22T05:08:28;14.43;;;5.35;;
73337;SDS011;61575;49.908;35.556;2024-03-22T05:11:29;12.63;;;5.65;;
73337;SDS011;61575;49.908;35.556;2024-03-22T05:14:31;13.05;;;5.28;;
73337;SDS011;61575;49.908;35.556;2024-03-22T05:17:32;13.30;;;5.68;;
73337;SDS011;61575;49.908;35.556;2024-03-22T05:20:33;14.52;;;6.32;;
73337;SDS011;61575;49.908;35.556;2024-03-22T05:23:34;15.40;;;6.32;;
73337;SDS011;61575;49.908;35.556;2024-03-22T05:26:35;13.68;;;5.45;;
73337;SDS011;61575;49.908;35.556;2024-03-22T05:29:37;13.63;;;5.95;;
73337;SDS011;61575;49.908;35.556;2024-03-22T05:32:38;13.40;;;5.47;;
73337;SDS011;61575;49.908;35.556;2024-03-22T05:35:39;12.25;;;4.95;;
73337;SDS011;61575;49.908;35.556;2024-03-22T05:38:39;14.18;;;5.25;;
73337;SDS011;61575;49.908;35.556;2024-03-22T05:41:40;12.18;;;5.30;;
73337;SDS011;61575;49.908;35.556;2024-03-22T05:44:41;11.15;;;5.03;;
73337;SDS011;61575;49.908;35.556;2024-03-22T05:47:43;11.52;;;4.93;;
73337;SDS011;61575;49.908;35.556;2024-03-22T05:50:44;13.13;;;5.30;;
73337;SDS011;61575;49.908;35.556;2024-03-22T05:53:45;14.35;;;5.63;;
73337;SDS011;61575;49.908;35.556;2024-03-22T05:56:46;13.63;;;5.57;;
73337;SDS011;61575;49.908;35.556;2024-03-22T05:59:47;11.77;;;5.30;;
73337;SDS011;61575;49.908;35.556;2024-03-22T06:02:49;13.32;;;5.28;;
73337;SDS011;61575;49.908;35.556;2024-03-22T06:05:50;14.05;;;5.72;;
73337;SDS011;61575;49.908;35.556;2024-03-22T06:08:55;14.30;;;5.47;;
73337;SDS011;61575;49.908;35.556;2024-03-22T06:11:57;14.90;;;6.10;;
73337;SDS011;61575;49.908;35.556;2024-03-22T06:14:58;13.45;;;5.63;;
73337;SDS011;61575;49.908;35.556;2024-03-22T06:17:59;13.43;;;6.15;;
73337;SDS011;61575;49.908;35.556;2024-03-22T06:21:00;14.50;;;5.78;;
73337;SDS011;61575;49.908;35.556;2024-03-22T06:24:01;15.65;;;7.55;;
73337;SDS011;61575;49.908;35.556;2024-03-22T06:27:02;16.85;;;6.28;;
73337;SDS011;61575;49.908;35.556;2024-03-22T06:30:03;13.77;;;6.13;;
73337;SDS011;61575;49.908;35.556;2024-03-22T06:33:05;13.02;;;6.55;;
73337;SDS011;61575;49.908;35.556;2024-03-22T06:36:06;16.40;;;7.85;;
73337;SDS011;61575;49.908;35.556;2024-03-22T06:39:07;27.35;;;12.52;;
73337;SDS011;61575;49.908;35.556;2024-03-22T06:42:08;19.55;;;8.50;;
73337;SDS011;61575;49.908;35.556;2024-03-22T06:45:09;16.92;;;8.00;;
73337;SDS011;61575;49.908;35.556;2024-03-22T06:48:10;15.50;;;7.07;;
73337;SDS011;61575;49.908;35.556;2024-03-22T06:51:11;14.27;;;7.13;;
73337;SDS011;61575;49.908;35.556;2024-03-22T06:54:12;12.75;;;6.63;;
73337;SDS011;61575;49.908;35.556;2024-03-22T06:57:13;15.05;;;6.10;;
73337;SDS011;61575;49.908;35.556;2024-03-22T07:00:14;15.85;;;6.68;;
73337;SDS011;61575;49.908;35.556;2024-03-22T07:03:16;13.77;;;6.18;;
73337;SDS011;61575;49.908;35.556;2024-03-22T07:06:17;13.80;;;6.40;;
73337;SDS011;61575;49.908;35.556;2024-03-22T07:09:18;15.23;;;6.68;;
73337;SDS011;61575;49.908;35.556;2024-03-22T07:12:19;14.13;;;6.40;;
73337;SDS011;61575;49.908;35.556;2024-03-22T07:15:21;15.00;;;6.30;;
73337;SDS011;61575;49.908;35.556;2024-03-22T07:18:23;15.82;;;6.68;;
73337;SDS011;61575;49.908;35.556;2024-03-22T07:21:24;13.95;;;6.28;;
73337;SDS011;61575;49.908;35.556;2024-03-22T07:24:25;16.33;;;5.78;;
73337;SDS011;61575;49.908;35.556;2024-03-22T07:27:26;12.82;;;5.82;;
73337;SDS011;61575;49.908;35.556;2024-03-22T07:30:30;14.50;;;7.05;;
73337;SDS011;61575;49.908;35.556;2024-03-22T07:33:31;14.55;;;7.05;;
73337;SDS011;61575;49.908;35.556;2024-03-22T07:36:36;15.50;;;6.53;;
73337;SDS011;61575;49.908;35.556;2024-03-22T07:39:38;14.00;;;6.78;;
73337;SDS011;61575;49.908;35.556;2024-03-22T07:42:39;16.42;;;7.80;;
73337;SDS011;61575;49.908;35.556;2024-03-22T07:45:40;18.65;;;8.68;;
73337;SDS011;61575;49.908;35.556;2024-03-22T07:48:41;22.15;;;9.27;;
73337;SDS011;61575;49.908;35.556;2024-03-22T07:51:42;17.05;;;8.10;;
73337;SDS011;61575;49.908;35.556;2024-03-22T07:54:43;16.83;;;7.32;;
73337;SDS011;61575;49.908;35.556;2024-03-22T07:57:44;14.90;;;6.43;;
73337;SDS011;61575;49.908;35.556;2024-03-22T08:00:45;16.30;;;6.97;;
73337;SDS011;61575;49.908;35.556;2024-03-22T08:03:46;17.48;;;7.63;;
73337;SDS011;61575;49.908;35.556;2024-03-22T08:06:47;14.63;;;7.68;;
73337;SDS011;61575;49.908;35.556;2024-03-22T08:09:48;17.73;;;8.38;;
73337;SDS011;61575;49.908;35.556;2024-03-22T08:12:49;16.08;;;7.57;;
73337;SDS011;61575;49.908;35.556;2024-03-22T08:15:50;14.38;;;7.15;;
73337;SDS011;61575;49.908;35.556;2024-03-22T08:18:51;15.40;;;7.13;;
73337;SDS011;61575;49.908;35.556;2024-03-22T08:21:52;16.80;;;7.15;;
73337;SDS011;61575;49.908;35.556;2024-03-22T08:24:53;16.98;;;8.05;;
73337;SDS011;61575;49.908;35.556;2024-03-22T08:27:56;15.73;;;7.35;;
73337;SDS011;61575;49.908;35.556;2024-03-22T08:30:58;16.65;;;7.68;;
73337;SDS011;61575;49.908;35.556;2024-03-22T08:34:04;14.93;;;7.72;;
73337;SDS011;61575;49.908;35.556;2024-03-22T08:37:06;16.40;;;7.72;;
73337;SDS011;61575;49.908;35.556;2024-03-22T08:40:07;15.00;;;7.78;;
73337;SDS011;61575;49.908;35.556;2024-03-22T08:43:08;15.90;;;7.35;;
73337;SDS011;61575;49.908;35.556;2024-03-22T08:46:09;17.77;;;7.97;;
73337;SDS011;61575;49.908;35.556;2024-03-22T08:49:10;13.88;;;7.18;;
73337;SDS011;61575;49.908;35.556;2024-03-22T08:52:12;16.38;;;7.25;;
73337;SDS011;61575;49.908;35.556;2024-03-22T08:55:13;15.07;;;7.53;;
73337;SDS011;61575;49.908;35.556;2024-03-22T08:58:14;15.73;;;7.82;;
73337;SDS011;61575;49.908;35.556;2024-03-22T09:01:16;13.98;;;7.43;;
73337;SDS011;61575;49.908;35.556;2024-03-22T09:04:16;17.10;;;8.13;;
73337;SDS011;61575;49.908;35.556;2024-03-22T09:07:17;16.77;;;8.23;;
73337;SDS011;61575;49.908;35.556;2024-03-22T09:10:18;17.30;;;7.90;;
73337;SDS011;61575;49.908;35.556;2024-03-22T09:13:19;15.10;;;7.70;;
73337;SDS011;61575;49.908;35.556;2024-03-22T09:16:20;16.90;;;7.88;;
73337;SDS011;61575;49.908;35.556;2024-03-22T09:19:21;17.25;;;8.65;;
73337;SDS011;61575;49.908;35.556;2024-03-22T09:22:22;16.85;;;8.00;;
73337;SDS011;61575;49.908;35.556;2024-03-22T09:25:23;15.70;;;8.27;;
73337;SDS011;61575;49.908;35.556;2024-03-22T09:28:25;16.40;;;8.63;;
73337;SDS011;61575;49.908;35.556;2024-03-22T09:31:27;15.52;;;7.40;;
73337;SDS011;61575;49.908;35.556;2024-03-22T09:34:28;15.32;;;7.82;;
73337;SDS011;61575;49.908;35.556;2024-03-22T09:37:30;16.43;;;7.97;;
73337;SDS011;61575;49.908;35.556;2024-03-22T09:40:31;17.80;;;8.68;;
73337;SDS011;61575;49.908;35.556;2024-03-22T09:43:32;14.85;;;7.93;;
73337;SDS011;61575;49.908;35.556;2024-03-22T09:46:35;16.38;;;7.88;;
73337;SDS011;61575;49.908;35.556;2024-03-22T09:49:38;17.30;;;8.88;;
73337;SDS011;61575;49.908;35.556;2024-03-22T09:52:39;15.15;;;8.50;;
73337;SDS011;61575;49.908;35.556;2024-03-22T09:58:44;18.40;;;8.75;;
73337;SDS011;61575;49.908;35.556;2024-03-22T10:01:45;18.60;;;8.98;;
73337;SDS011;61575;49.908;35.556;2024-03-22T10:04:46;15.20;;;8.00;;
73337;SDS011;61575;49.908;35.556;2024-03-22T10:07:47;17.02;;;8.85;;
73337;SDS011;61575;49.908;35.556;2024-03-22T10:10:49;16.50;;;8.80;;
73337;SDS011;61575;49.908;35.556;2024-03-22T10:13:50;18.67;;;9.18;;
73337;SDS011;61575;49.908;35.556;2024-03-22T10:16:52;25.55;;;13.35;;
73337;SDS011;61575;49.908;35.556;2024-03-22T10:19:56;19.65;;;9.10;;
73337;SDS011;61575;49.908;35.556;2024-03-22T10:22:58;20.90;;;10.52;;
73337;SDS011;61575;49.908;35.556;2024-03-22T10:25:59;19.63;;;10.00;;
73337;SDS011;61575;49.908;35.556;2024-03-22T10:29:01;18.90;;;9.45;;
73337;SDS011;61575;49.908;35.556;2024-03-22T10:32:07;16.90;;;9.02;;
73337;SDS011;61575;49.908;35.556;2024-03-22T10:35:11;18.58;;;9.88;;
73337;SDS011;61575;49.908;35.556;2024-03-22T10:38:14;16.95;;;9.18;;
73337;SDS011;61575;49.908;35.556;2024-03-22T10:41:19;16.60;;;9.13;;
73337;SDS011;61575;49.908;35.556;2024-03-22T10:44:20;16.27;;;9.05;;
73337;SDS011;61575;49.908;35.556;2024-03-22T10:47:24;15.52;;;9.15;;
73337;SDS011;61575;49.908;35.556;2024-03-22T10:50:30;19.02;;;10.25;;
73337;SDS011;61575;49.908;35.556;2024-03-22T10:53:34;20.17;;;9.85;;
73337;SDS011;61575;49.908;35.556;2024-03-22T10:56:36;17.17;;;8.43;;
73337;SDS011;61575;49.908;35.556;2024-03-22T10:59:38;19.17;;;9.98;;
73337;SDS011;61575;49.908;35.556;2024-03-22T11:02:45;18.83;;;9.13;;
73337;SDS011;61575;49.908;35.556;2024-03-22T11:05:46;17.98;;;9.43;;
73337;SDS011;61575;49.908;35.556;2024-03-22T11:08:51;20.43;;;10.20;;
73337;SDS011;61575;49.908;35.556;2024-03-22T11:11:52;19.60;;;9.63;;
73337;SDS011;61575;49.908;35.556;2024-03-22T11:14:55;19.38;;;10.27;;
73337;SDS011;61575;49.908;35.556;2024-03-22T11:17:56;18.10;;;10.05;;
73337;SDS011;61575;49.908;35.556;2024-03-22T11:20:59;18.27;;;10.18;;
73337;SDS011;61575;49.908;35.556;2024-03-22T11:24:01;18.00;;;9.80;;
73337;SDS011;61575;49.908;35.556;2024-03-22T11:27:02;19.20;;;10.05;;
73337;SDS011;61575;49.908;35.556;2024-03-22T11:30:04;18.48;;;10.07;;
73337;SDS011;61575;49.908;35.556;2024-03-22T11:33:05;20.52;;;10.20;;
73337;SDS011;61575;49.908;35.556;2024-03-22T11:36:06;24.77;;;11.40;;
73337;SDS011;61575;49.908;35.556;2024-03-22T11:39:08;19.77;;;11.10;;
73337;SDS011;61575;49.908;35.556;2024-03-22T11:42:09;18.85;;;10.07;;
73337;SDS011;61575;49.908;35.556;2024-03-22T11:45:11;22.00;;;11.40;;
73337;SDS011;61575;49.908;35.556;2024-03-22T11:48:18;23.92;;;10.52;;
73337;SDS011;61575;49.908;35.556;2024-03-22T11:51:19;19.35;;;10.15;;
73337;SDS011;61575;49.908;35.556;2024-03-22T11:54:21;19.38;;;10.38;;
73337;SDS011;61575;49.908;35.556;2024-03-22T11:57:22;18.10;;;10.30;;
73337;SDS011;61575;49.908;35.556;2024-03-22T12:00:24;18.75;;;10.10;;
73337;SDS011;61575;49.908;35.556;2024-03-22T12:03:26;20.75;;;12.30;;
73337;SDS011;61575;49.908;35.556;2024-03-22T12:06:27;19.85;;;10.68;;
73337;SDS011;61575;49.908;35.556;2024-03-22T12:09:28;20.42;;;10.57;;
73337;SDS011;61575;49.908;35.556;2024-03-22T12:12:29;20.98;;;12.25;;
73337;SDS011;61575;49.908;35.556;2024-03-22T12:15:30;18.33;;;9.93;;
73337;SDS011;61575;49.908;35.556;2024-03-22T12:18:31;24.40;;;11.80;;
73337;SDS011;61575;49.908;35.556;2024-03-22T12:21:32;20.35;;;13.20;;
73337;SDS011;61575;49.908;35.556;2024-03-22T12:24:33;18.45;;;9.82;;
73337;SDS011;61575;49.908;35.556;2024-03-22T12:27:34;19.20;;;10.25;;
73337;SDS011;61575;49.908;35.556;2024-03-22T12:30:35;20.52;;;10.13;;
73337;SDS011;61575;49.908;35.556;2024-03-22T12:33:36;18.98;;;9.88;;
73337;SDS011;61575;49.908;35.556;2024-03-22T12:36:37;18.63;;;10.27;;
73337;SDS011;61575;49.908;35.556;2024-03-22T12:39:38;18.55;;;9.75;;
73337;SDS011;61575;49.908;35.556;2024-03-22T12:42:40;18.38;;;9.15;;
73337;SDS011;61575;49.908;35.556;2024-03-22T12:45:41;17.42;;;9.35;;
73337;SDS011;61575;49.908;35.556;2024-03-22T12:48:42;15.13;;;8.70;;
73337;SDS011;61575;49.908;35.556;2024-03-22T12:51:43;14.60;;;8.50;;
73337;SDS011;61575;49.908;35.556;2024-03-22T12:54:44;15.88;;;9.05;;
73337;SDS011;61575;49.908;35.556;2024-03-22T12:57:45;16.05;;;9.10;;
73337;SDS011;61575;49.908;35.556;2024-03-22T13:00:47;14.65;;;8.50;;
73337;SDS011;61575;49.908;35.556;2024-03-22T13:03:47;15.07;;;8.93;;
73337;SDS011;61575;49.908;35.556;2024-03-22T13:06:48;16.38;;;8.75;;
73337;SDS011;61575;49.908;35.556;2024-03-22T13:09:50;16.35;;;9.00;;
73337;SDS011;61575;49.908;35.556;2024-03-22T13:12:51;17.98;;;9.82;;
73337;SDS011;61575;49.908;35.556;2024-03-22T13:15:52;14.98;;;8.88;;
73337;SDS011;61575;49.908;35.556;2024-03-22T13:18:53;16.10;;;9.40;;
73337;SDS011;61575;49.908;35.556;2024-03-22T13:21:54;15.60;;;8.70;;
73337;SDS011;61575;49.908;35.556;2024-03-22T13:24:55;16.10;;;8.63;;
73337;SDS011;61575;49.908;35.556;2024-03-22T13:27:56;18.55;;;9.52;;
73337;SDS011;61575;49.908;35.556;2024-03-22T13:31:03;18.38;;;10.45;;
73337;SDS011;61575;49.908;35.556;2024-03-22T13:34:08;19.90;;;10.07;;
73337;SDS011;61575;49.908;35.556;2024-03-22T13:37:09;18.55;;;9.52;;
73337;SDS011;61575;49.908;35.556;2024-03-22T13:40:11;15.90;;;9.05;;
73337;SDS011;61575;49.908;35.556;2024-03-22T13:43:12;17.80;;;9.65;;
73337;SDS011;61575;49.908;35.556;2024-03-22T13:46:13;18.52;;;9.30;;
73337;SDS011;61575;49.908;35.556;2024-03-22T13:49:17;16.13;;;8.75;;
73337;SDS011;61575;49.908;35.556;2024-03-22T13:52:24;17.42;;;8.27;;
73337;SDS011;61575;49.908;35.556;2024-03-22T13:55:26;15.00;;;8.60;;
73337;SDS011;61575;49.908;35.556;2024-03-22T13:58:27;15.88;;;8.38;;
73337;SDS011;61575;49.908;35.556;2024-03-22T14:01:28;16.35;;;9.13;;
73337;SDS011;61575;49.908;35.556;2024-03-22T14:04:29;19.70;;;11.05;;
73337;SDS011;61575;49.908;35.556;2024-03-22T14:07:30;18.55;;;10.40;;
73337;SDS011;61575;49.908;35.556;2024-03-22T14:10:31;22.88;;;10.45;;
73337;SDS011;61575;49.908;35.556;2024-03-22T14:13:32;18.05;;;9.95;;
73337;SDS011;61575;49.908;35.556;2024-03-22T14:16:33;18.27;;;10.30;;
73337;SDS011;61575;49.908;35.556;2024-03-22T14:19:34;14.43;;;8.27;;
73337;SDS011;61575;49.908;35.556;2024-03-22T14:22:35;18.55;;;9.95;;
73337;SDS011;61575;49.908;35.556;2024-03-22T14:25:36;16.33;;;9.32;;
73337;SDS011;61575;49.908;35.556;2024-03-22T14:28:37;21.38;;;9.80;;
73337;SDS011;61575;49.908;35.556;2024-03-22T14:31:40;22.52;;;10.27;;
73337;SDS011;61575;49.908;35.556;2024-03-22T14:34:43;19.90;;;10.75;;
73337;SDS011;61575;49.908;35.556;2024-03-22T14:37:44;16.42;;;9.02;;
73337;SDS011;61575;49.908;35.556;2024-03-22T14:40:45;16.73;;;8.88;;
73337;SDS011;61575;49.908;35.556;2024-03-22T14:43:46;18.05;;;9.30;;
73337;SDS011;61575;49.908;35.556;2024-03-22T14:46:47;18.55;;;9.15;;
73337;SDS011;61575;49.908;35.556;2024-03-22T14:49:51;16.85;;;9.32;;
73337;SDS011;61575;49.908;35.556;2024-03-22T14:52:52;21.98;;;12.15;;
73337;SDS011;61575;49.908;35.556;2024-03-22T14:55:53;30.08;;;15.40;;
73337;SDS011;61575;49.908;35.556;2024-03-22T14:58:58;24.05;;;12.45;;
73337;SDS011;61575;49.908;35.556;2024-03-22T15:02:02;19.00;;;10.68;;
73337;SDS011;61575;49.908;35.556;2024-03-22T15:05:04;24.10;;;13.38;;
73337;SDS011;61575;49.908;35.556;2024-03-22T15:08:05;18.02;;;10.50;;
73337;SDS011;61575;49.908;35.556;2024-03-22T15:11:06;21.52;;;12.45;;
73337;SDS011;61575;49.908;35.556;2024-03-22T15:14:07;20.45;;;12.35;;
73337;SDS011;61575;49.908;35.556;2024-03-22T15:17:08;21.70;;;12.45;;
73337;SDS011;61575;49.908;35.556;2024-03-22T15:20:09;45.10;;;23.55;;
73337;SDS011;61575;49.908;35.556;2024-03-22T15:23:10;46.45;;;21.02;;
73337;SDS011;61575;49.908;35.556;2024-03-22T15:26:11;52.47;;;20.73;;
73337;SDS011;61575;49.908;35.556;2024-03-22T15:29:12;50.22;;;29.60;;
73337;SDS011;61575;49.908;35.556;2024-03-22T15:32:13;52.85;;;30.75;;
73337;SDS011;61575;49.908;35.556;2024-03-22T15:35:14;73.10;;;36.05;;
73337;SDS011;61575;49.908;35.556;2024-03-22T15:38:15;46.58;;;23.90;;
73337;SDS011;61575;49.908;35.556;2024-03-22T15:41:16;38.05;;;21.63;;
73337;SDS011;61575;49.908;35.556;2024-03-22T15:47:20;97.10;;;48.60;;
73337;SDS011;61575;49.908;35.556;2024-03-22T15:50:22;88.07;;;32.72;;
73337;SDS011;61575;49.908;35.556;2024-03-22T15:53:23;100.85;;;37.30;;
73337;SDS011;61575;49.908;35.556;2024-03-22T15:56:31;136.57;;;54.00;;
73337;SDS011;61575;49.908;35.556;2024-03-22T15:59:32;99.78;;;41.15;;
73337;SDS011;61575;49.908;35.556;2024-03-22T16:02:33;68.68;;;33.00;;
73337;SDS011;61575;49.908;35.556;2024-03-22T16:05:34;56.92;;;29.35;;
73337;SDS011;61575;49.908;35.556;2024-03-22T16:08:36;68.53;;;33.55;;
73337;SDS011;61575;49.908;35.556;2024-03-22T16:11:37;74.35;;;36.33;;
73337;SDS011;61575;49.908;35.556;2024-03-22T16:14:38;64.07;;;35.58;;
73337;SDS011;61575;49.908;35.556;2024-03-22T16:17:39;50.35;;;26.45;;
73337;SDS011;61575;49.908;35.556;2024-03-22T16:20:41;92.30;;;48.53;;
73337;SDS011;61575;49.908;35.556;2024-03-22T16:23:42;98.93;;;46.55;;
73337;SDS011;61575;49.908;35.556;2024-03-22T16:26:43;73.63;;;36.70;;
73337;SDS011;61575;49.908;35.556;2024-03-22T16:29:44;59.10;;;28.23;;
73337;SDS011;61575;49.908;35.556;2024-03-22T16:32:45;61.83;;;32.75;;
73337;SDS011;61575;49.908;35.556;2024-03-22T16:35:46;56.50;;;29.60;;
73337;SDS011;61575;49.908;35.556;2024-03-22T16:38:47;48.45;;;25.98;;
73337;SDS011;61575;49.908;35.556;2024-03-22T16:41:48;53.75;;;28.17;;
73337;SDS011;61575;49.908;35.556;2024-03-22T16:44:51;67.95;;;32.00;;
73337;SDS011;61575;49.908;35.556;2024-03-22T16:47:52;139.80;;;58.78;;
73337;SDS011;61575;49.908;35.556;2024-03-22T16:50:53;290.52;;;105.93;;
73337;SDS011;61575;49.908;35.556;2024-03-22T16:53:54;191.65;;;74.30;;
73337;SDS011;61575;49.908;35.556;2024-03-22T16:56:55;174.93;;;70.18;;
73337;SDS011;61575;49.908;35.556;2024-03-22T16:59:57;124.82;;;53.78;;
73337;SDS011;61575;49.908;35.556;2024-03-22T17:02:58;78.03;;;32.83;;
73337;SDS011;61575;49.908;35.556;2024-03-22T17:05:58;80.15;;;31.52;;
73337;SDS011;61575;49.908;35.556;2024-03-22T17:08:59;79.40;;;33.38;;
73337;SDS011;61575;49.908;35.556;2024-03-22T17:12:02;185.52;;;62.63;;
73337;SDS011;61575;49.908;35.556;2024-03-22T17:15:04;231.00;;;75.93;;
73337;SDS011;61575;49.908;35.556;2024-03-22T17:18:05;83.70;;;32.97;;
73337;SDS011;61575;49.908;35.556;2024-03-22T17:21:06;152.25;;;59.17;;
73337;SDS011;61575;49.908;35.556;2024-03-22T17:24:07;203.32;;;81.03;;
73337;SDS011;61575;49.908;35.556;2024-03-22T17:27:08;304.88;;;114.72;;
73337;SDS011;61575;49.908;35.556;2024-03-22T17:30:09;277.17;;;102.32;;
73337;SDS011;61575;49.908;35.556;2024-03-22T17:33:10;196.68;;;80.90;;
73337;SDS011;61575;49.908;35.556;2024-03-22T17:36:11;159.38;;;68.47;;
73337;SDS011;61575;49.908;35.556;2024-03-22T17:39:12;98.35;;;42.60;;
73337;SDS011;61575;49.908;35.556;2024-03-22T17:42:13;92.55;;;43.35;;
73337;SDS011;61575;49.908;35.556;2024-03-22T17:45:14;88.78;;;39.72;;
73337;SDS011;61575;49.908;35.556;2024-03-22T17:48:15;117.45;;;47.28;;
73337;SDS011;61575;49.908;35.556;2024-03-22T17:51:16;134.25;;;51.97;;